createdAt,value
2024-02-27T00:00:29.950Z,50.69
2024-02-27T00:01:29.991Z,50.58
2024-02-27T00:02:30.345Z,50.49
2024-02-27T00:03:29.967Z,50.46
2024-02-27T00:04:30.028Z,50.73
2024-02-27T00:05:30.028Z,50.64
2024-02-27T00:06:30.036Z,50.91
2024-02-27T00:07:29.981Z,50.98
2024-02-27T00:08:29.946Z,51.71
2024-02-27T00:09:29.956Z,52.05
2024-02-27T00:10:29.969Z,52.03
2024-02-27T00:11:29.965Z,52.01
2024-02-27T00:12:30.338Z,51.93
2024-02-27T00:13:29.950Z,51.76
2024-02-27T00:14:29.970Z,51.51
2024-02-27T00:15:29.991Z,51.48
2024-02-27T00:16:29.958Z,51.45
2024-02-27T00:17:30.007Z,51.58
2024-02-27T00:18:30.177Z,51.59
2024-02-27T00:19:30.140Z,51.48
2024-02-27T00:20:30.048Z,51.46
2024-02-27T00:21:30.041Z,51.32
2024-02-27T00:22:30.025Z,51.19
2024-02-27T00:23:29.985Z,51.19
2024-02-27T00:24:30.101Z,51.70
2024-02-27T00:25:29.979Z,52.02
2024-02-27T00:26:29.995Z,52.44
2024-02-27T00:27:30.088Z,52.19
2024-02-27T00:28:29.984Z,51.97
2024-02-27T00:29:30.041Z,52.02
2024-02-27T00:30:30.060Z,52.22
2024-02-27T00:31:30.061Z,52.46
2024-02-27T00:32:30.338Z,52.46
2024-02-27T00:33:30.034Z,52.26
2024-02-27T00:34:30.072Z,52.24
2024-02-27T00:35:30.036Z,52.19
2024-02-27T00:36:30.230Z,52.35
2024-02-27T00:37:30.328Z,52.52
2024-02-27T00:38:30.028Z,52.66
2024-02-27T00:39:30.129Z,52.59
2024-02-27T00:40:30.029Z,52.47
2024-02-27T00:41:30.000Z,52.39
2024-02-27T00:42:30.438Z,52.32
2024-02-27T00:43:30.000Z,52.41
2024-02-27T00:44:30.041Z,52.88
2024-02-27T00:45:30.019Z,52.54
2024-02-27T00:46:30.057Z,53.33
2024-02-27T00:47:30.356Z,53.18
2024-02-27T00:48:30.149Z,53.03
2024-02-27T00:49:30.099Z,53.52
2024-02-27T00:50:30.048Z,53.46
2024-02-27T00:51:30.058Z,53.74
2024-02-27T00:52:30.149Z,53.71
2024-02-27T00:53:30.013Z,53.37
2024-02-27T00:54:30.094Z,53.53
2024-02-27T00:55:30.101Z,53.53
2024-02-27T00:56:30.102Z,53.50
2024-02-27T00:57:30.182Z,53.27
2024-02-27T00:58:30.182Z,53.85
2024-02-27T00:59:30.209Z,54.19
2024-02-27T01:00:30.224Z,53.85
2024-02-27T01:01:30.332Z,53.70
2024-02-27T01:02:30.353Z,53.82
2024-02-27T01:03:30.458Z,53.62
2024-02-27T01:04:30.478Z,53.44
2024-02-27T01:05:30.600Z,54.03
2024-02-27T01:06:30.592Z,53.71
2024-02-27T01:07:30.851Z,53.64
2024-02-27T01:08:30.725Z,53.82
2024-02-27T01:09:30.718Z,53.48
2024-02-27T01:10:30.750Z,53.73
2024-02-27T01:11:30.791Z,54.56
2024-02-27T01:12:30.894Z,53.91
2024-02-27T01:13:30.865Z,54.64
2024-02-27T01:14:30.941Z,54.18
2024-02-27T01:15:31.035Z,53.80
2024-02-27T01:16:31.014Z,53.73
2024-02-27T01:17:31.090Z,54.01
2024-02-27T01:18:31.212Z,53.96
2024-02-27T01:19:31.224Z,53.66
2024-02-27T01:20:31.154Z,53.86
2024-02-27T01:21:31.257Z,54.43
2024-02-27T01:22:31.354Z,54.07
2024-02-27T01:23:31.308Z,54.06
2024-02-27T01:24:31.453Z,54.23
2024-02-27T01:25:31.413Z,53.95
2024-02-27T01:26:31.487Z,53.68
2024-02-27T01:27:31.613Z,53.72
2024-02-27T01:28:31.529Z,53.40
2024-02-27T01:29:31.572Z,53.52
2024-02-27T01:30:31.687Z,54.38
2024-02-27T01:31:31.704Z,54.05
2024-02-27T01:32:31.793Z,53.83
2024-02-27T01:33:31.893Z,53.91
2024-02-27T01:34:31.978Z,53.75
2024-02-27T01:35:31.893Z,53.55
2024-02-27T01:36:31.933Z,53.35
2024-02-27T01:37:31.957Z,53.10
2024-02-27T01:38:32.003Z,53.21
2024-02-27T01:39:32.127Z,53.63
2024-02-27T01:40:32.157Z,53.46
2024-02-27T01:41:32.112Z,53.21
2024-02-27T01:42:32.376Z,53.56
2024-02-27T01:43:32.222Z,53.56
2024-02-27T01:44:32.245Z,53.14
2024-02-27T01:45:32.394Z,52.95
2024-02-27T01:46:32.287Z,52.66
2024-02-27T01:47:32.378Z,52.50
2024-02-27T01:48:33.402Z,52.50
2024-02-27T01:49:32.503Z,52.38
2024-02-27T01:50:32.405Z,52.20
2024-02-27T01:51:32.482Z,52.16
2024-02-27T01:52:32.399Z,52.13
2024-02-27T01:53:32.417Z,51.88
2024-02-27T01:54:32.570Z,51.73
2024-02-27T01:55:32.499Z,52.30
2024-02-27T01:56:32.570Z,51.99
2024-02-27T01:57:32.659Z,53.67
2024-02-27T01:58:32.553Z,53.49
2024-02-27T01:59:32.588Z,53.40
2024-02-27T02:00:32.628Z,53.17
2024-02-27T02:01:32.716Z,52.89
2024-02-27T02:02:32.679Z,52.82
2024-02-27T02:03:32.708Z,52.64
2024-02-27T02:04:32.909Z,52.84
2024-02-27T02:05:32.707Z,52.75
2024-02-27T02:06:32.837Z,52.69
2024-02-27T02:07:32.785Z,52.44
2024-02-27T02:08:32.784Z,52.69
2024-02-27T02:09:32.906Z,53.57
2024-02-27T02:10:32.839Z,53.67
2024-02-27T02:11:32.918Z,53.93
2024-02-27T02:12:33.030Z,54.14
2024-02-27T02:13:32.980Z,53.78
2024-02-27T02:14:32.993Z,53.63
2024-02-27T02:15:33.113Z,53.43
2024-02-27T02:16:33.118Z,53.13
2024-02-27T02:17:33.340Z,53.56
2024-02-27T02:18:33.402Z,53.76
2024-02-27T02:19:33.347Z,53.46
2024-02-27T02:20:33.285Z,53.34
2024-02-27T02:21:33.346Z,55.10
2024-02-27T02:22:33.861Z,55.19
2024-02-27T02:23:33.407Z,54.77
2024-02-27T02:24:33.461Z,54.64
2024-02-27T02:25:33.463Z,54.46
2024-02-27T02:26:33.500Z,55.29
2024-02-27T02:27:33.910Z,55.57
2024-02-27T02:28:33.604Z,55.10
2024-02-27T02:29:33.646Z,54.91
2024-02-27T02:30:33.790Z,55.13
2024-02-27T02:31:33.731Z,54.64
2024-02-27T02:32:33.819Z,54.41
2024-02-27T02:33:33.916Z,54.18
2024-02-27T02:34:33.928Z,53.80
2024-02-27T02:35:33.860Z,53.83
2024-02-27T02:36:34.022Z,54.01
2024-02-27T02:37:33.960Z,54.31
2024-02-27T02:38:33.990Z,54.23
2024-02-27T02:39:34.094Z,55.02
2024-02-27T02:40:34.032Z,54.92
2024-02-27T02:41:34.081Z,55.42
2024-02-27T02:42:34.398Z,56.16
2024-02-27T02:43:34.153Z,55.71
2024-02-27T02:44:34.281Z,55.83
2024-02-27T02:45:34.244Z,55.37
2024-02-27T02:46:34.266Z,54.95
2024-02-27T02:47:34.316Z,55.19
2024-02-27T02:48:34.479Z,54.92
2024-02-27T02:49:35.654Z,54.66
2024-02-27T02:50:34.403Z,55.14
2024-02-27T02:51:34.467Z,55.04
2024-02-27T02:52:34.425Z,54.74
2024-02-27T02:53:34.373Z,54.80
2024-02-27T02:54:34.436Z,54.76
2024-02-27T02:55:34.387Z,54.47
2024-02-27T02:56:34.404Z,54.44
2024-02-27T02:57:34.440Z,54.35
2024-02-27T02:58:34.417Z,54.44
2024-02-27T02:59:34.365Z,54.78
2024-02-27T03:00:34.463Z,55.13
2024-02-27T03:01:34.448Z,55.46
2024-02-27T03:02:34.384Z,55.55
2024-02-27T03:03:34.548Z,55.07
2024-02-27T03:04:34.444Z,54.92
2024-02-27T03:05:34.422Z,54.97
2024-02-27T03:06:34.540Z,54.62
2024-02-27T03:07:34.413Z,54.47
2024-02-27T03:08:34.434Z,54.27
2024-02-27T03:09:34.419Z,54.01
2024-02-27T03:10:34.407Z,54.04
2024-02-27T03:11:34.455Z,54.01
2024-02-27T03:12:34.929Z,54.07
2024-02-27T03:13:34.406Z,53.83
2024-02-27T03:14:34.430Z,53.85
2024-02-27T03:15:34.494Z,53.90
2024-02-27T03:16:34.525Z,53.74
2024-02-27T03:17:34.510Z,53.62
2024-02-27T03:18:34.517Z,53.50
2024-02-27T03:19:34.530Z,53.29
2024-02-27T03:20:34.415Z,53.22
2024-02-27T03:21:34.498Z,53.22
2024-02-27T03:22:34.405Z,53.47
2024-02-27T03:23:34.461Z,53.34
2024-02-27T03:24:34.553Z,53.37
2024-02-27T03:25:34.463Z,53.61
2024-02-27T03:26:34.450Z,53.29
2024-02-27T03:27:34.544Z,53.39
2024-02-27T03:28:34.458Z,53.22
2024-02-27T03:29:34.481Z,53.59
2024-02-27T03:30:34.509Z,53.67
2024-02-27T03:31:34.451Z,53.48
2024-02-27T03:32:34.627Z,53.68
2024-02-27T03:33:34.669Z,53.64
2024-02-27T03:34:34.686Z,53.50
2024-02-27T03:35:34.476Z,53.77
2024-02-27T03:36:34.494Z,54.86
2024-02-27T03:37:34.439Z,54.63
2024-02-27T03:38:34.511Z,54.81
2024-02-27T03:39:34.519Z,55.15
2024-02-27T03:40:34.470Z,54.95
2024-02-27T03:41:34.489Z,54.77
2024-02-27T03:42:34.562Z,54.54
2024-02-27T03:43:34.503Z,54.25
2024-02-27T03:44:34.517Z,54.23
2024-02-27T03:45:34.538Z,54.09
2024-02-27T03:46:34.475Z,54.14
2024-02-27T03:47:34.556Z,54.30
2024-02-27T03:48:34.630Z,54.02
2024-02-27T03:49:34.665Z,53.84
2024-02-27T03:50:34.480Z,53.70
2024-02-27T03:51:34.589Z,53.74
2024-02-27T03:52:34.526Z,53.60
2024-02-27T03:53:34.565Z,53.52
2024-02-27T03:54:34.628Z,53.46
2024-02-27T03:55:34.578Z,53.90
2024-02-27T03:56:34.596Z,53.92
2024-02-27T03:57:34.813Z,53.72
2024-02-27T03:58:34.651Z,53.96
2024-02-27T03:59:34.690Z,53.79
2024-02-27T04:00:34.813Z,54.23
2024-02-27T04:01:34.752Z,54.10
2024-02-27T04:02:34.779Z,53.95
2024-02-27T04:03:34.864Z,54.11
2024-02-27T04:04:35.093Z,54.21
2024-02-27T04:05:34.974Z,54.25
2024-02-27T04:06:34.962Z,54.25
2024-02-27T04:07:35.384Z,54.31
2024-02-27T04:08:34.891Z,55.35
2024-02-27T04:09:34.990Z,55.09
2024-02-27T04:10:35.051Z,55.29
2024-02-27T04:11:35.065Z,55.98
2024-02-27T04:12:35.179Z,55.79
2024-02-27T04:13:36.338Z,55.67
2024-02-27T04:14:35.199Z,55.67
2024-02-27T04:15:35.236Z,55.68
2024-02-27T04:16:35.288Z,55.53
2024-02-27T04:18:35.408Z,55.22
2024-02-27T04:19:35.524Z,55.16
2024-02-27T04:20:35.481Z,55.15
2024-02-27T04:21:35.425Z,55.14
2024-02-27T04:22:35.472Z,55.41
2024-02-27T04:23:35.474Z,55.28
2024-02-27T04:24:35.514Z,55.39
2024-02-27T04:25:35.486Z,55.67
2024-02-27T04:26:35.531Z,55.83
2024-02-27T04:27:35.661Z,55.70
2024-02-27T04:28:35.714Z,55.79
2024-02-27T04:29:35.597Z,55.99
2024-02-27T04:30:35.684Z,56.26
2024-02-27T04:31:35.655Z,56.18
2024-02-27T04:32:35.725Z,56.27
2024-02-27T04:33:35.823Z,56.23
2024-02-27T04:34:35.923Z,56.51
2024-02-27T04:35:35.778Z,57.16
2024-02-27T04:36:35.952Z,56.78
2024-02-27T04:37:35.896Z,57.16
2024-02-27T04:38:35.863Z,57.22
2024-02-27T04:39:35.918Z,58.83
2024-02-27T04:40:35.922Z,58.00
2024-02-27T04:41:35.974Z,57.90
2024-02-27T04:42:36.039Z,57.78
2024-02-27T04:43:37.845Z,57.54
2024-02-27T04:44:36.058Z,58.07
2024-02-27T04:45:36.141Z,58.02
2024-02-27T04:46:36.138Z,58.02
2024-02-27T04:47:36.208Z,57.86
2024-02-27T04:48:36.442Z,57.89
2024-02-27T04:49:36.411Z,58.67
2024-02-27T04:50:36.345Z,58.52
2024-02-27T04:51:36.400Z,59.23
2024-02-27T04:52:37.005Z,58.86
2024-02-27T04:53:36.477Z,58.71
2024-02-27T04:54:36.580Z,58.52
2024-02-27T04:55:36.558Z,58.49
2024-02-27T04:56:36.608Z,58.65
2024-02-27T04:57:36.698Z,58.24
2024-02-27T04:58:36.724Z,58.56
2024-02-27T04:59:36.762Z,58.18
2024-02-27T05:00:36.902Z,58.11
2024-02-27T05:01:36.878Z,58.08
2024-02-27T05:02:36.935Z,58.17
2024-02-27T05:03:37.439Z,58.18
2024-02-27T05:04:37.076Z,58.11
2024-02-27T05:05:37.106Z,57.94
2024-02-27T05:06:37.177Z,57.98
2024-02-27T05:07:37.178Z,57.97
2024-02-27T05:08:37.302Z,57.84
2024-02-27T05:09:37.343Z,58.77
2024-02-27T05:10:37.303Z,58.37
2024-02-27T05:11:37.316Z,59.07
2024-02-27T05:12:37.430Z,58.74
2024-02-27T05:13:37.426Z,58.55
2024-02-27T05:14:37.479Z,58.50
2024-02-27T05:15:37.810Z,58.72
2024-02-27T05:16:37.551Z,58.58
2024-02-27T05:17:37.645Z,59.11
2024-02-27T05:18:37.794Z,59.25
2024-02-27T05:19:37.763Z,58.94
2024-02-27T05:20:37.739Z,58.94
2024-02-27T05:21:37.771Z,58.96
2024-02-27T05:22:37.832Z,58.67
2024-02-27T05:23:37.931Z,58.74
2024-02-27T05:24:38.144Z,58.65
2024-02-27T05:25:37.970Z,58.64
2024-02-27T05:26:37.989Z,58.61
2024-02-27T05:27:38.204Z,58.29
2024-02-27T05:28:38.117Z,58.27
2024-02-27T05:29:38.164Z,58.16
2024-02-27T05:30:38.252Z,58.21
2024-02-27T05:31:38.243Z,58.07
2024-02-27T05:32:38.321Z,57.82
2024-02-27T05:33:38.548Z,57.79
2024-02-27T05:34:38.524Z,58.09
2024-02-27T05:35:46.079Z,58.23
2024-02-27T05:36:46.099Z,58.39
2024-02-27T05:37:46.160Z,58.48
2024-02-27T05:38:46.105Z,58.53
2024-02-27T05:39:46.171Z,58.62
2024-02-27T05:40:46.073Z,58.59
2024-02-27T05:41:46.122Z,58.55
2024-02-27T05:42:46.169Z,58.54
2024-02-27T05:43:46.098Z,58.50
2024-02-27T05:44:46.101Z,58.44
2024-02-27T05:45:46.126Z,58.37
2024-02-27T05:46:46.104Z,58.48
2024-02-27T05:47:46.142Z,58.38
2024-02-27T05:48:46.242Z,58.24
2024-02-27T05:49:46.165Z,58.44
2024-02-27T05:50:46.116Z,58.32
2024-02-27T05:51:46.184Z,58.24
2024-02-27T05:52:46.119Z,58.24
2024-02-27T05:53:46.133Z,58.28
2024-02-27T05:54:46.253Z,58.27
2024-02-27T05:55:46.199Z,58.09
2024-02-27T05:56:46.143Z,58.14
2024-02-27T05:57:46.191Z,58.23
2024-02-27T05:58:46.138Z,58.09
2024-02-27T05:59:46.147Z,58.14
2024-02-27T06:00:46.182Z,58.20
2024-02-27T06:01:46.148Z,58.25
2024-02-27T06:02:46.200Z,58.35
2024-02-27T06:04:46.176Z,58.51
2024-02-27T06:05:46.155Z,58.50
2024-02-27T06:06:46.255Z,58.74
2024-02-27T06:07:46.230Z,58.59
2024-02-27T06:08:46.140Z,58.63
2024-02-27T06:09:46.246Z,58.60
2024-02-27T06:10:46.186Z,58.55
2024-02-27T06:11:46.234Z,58.62
2024-02-27T06:12:46.197Z,58.50
2024-02-27T06:13:46.188Z,58.62
2024-02-27T06:14:46.191Z,58.72
2024-02-27T06:15:46.226Z,59.00
2024-02-27T06:16:46.199Z,58.83
2024-02-27T06:17:46.223Z,58.95
2024-02-27T06:18:46.216Z,58.94
2024-02-27T06:19:46.248Z,58.87
2024-02-27T06:20:46.191Z,59.28
2024-02-27T06:21:46.228Z,59.04
2024-02-27T06:22:46.208Z,58.94
2024-02-27T06:23:46.734Z,59.16
2024-02-27T06:24:46.320Z,59.03
2024-02-27T06:25:46.270Z,59.13
2024-02-27T06:26:46.177Z,59.30
2024-02-27T06:27:46.340Z,59.26
2024-02-27T06:28:46.209Z,59.39
2024-02-27T06:29:46.260Z,59.30
2024-02-27T06:30:46.256Z,59.22
2024-02-27T06:31:46.208Z,59.40
2024-02-27T06:32:46.237Z,59.28
2024-02-27T06:33:46.409Z,59.28
2024-02-27T06:34:46.335Z,59.45
2024-02-27T06:35:46.232Z,59.59
2024-02-27T06:36:46.240Z,59.44
2024-02-27T06:37:46.222Z,59.57
2024-02-27T06:38:46.203Z,59.41
2024-02-27T06:39:46.266Z,59.39
2024-02-27T06:40:46.258Z,59.34
2024-02-27T06:41:46.255Z,59.34
2024-02-27T06:42:46.248Z,59.27
2024-02-27T06:43:46.779Z,59.23
2024-02-27T06:44:46.255Z,59.30
2024-02-27T06:45:46.245Z,59.28
2024-02-27T06:46:46.222Z,59.08
2024-02-27T06:47:46.325Z,59.00
2024-02-27T06:48:46.324Z,59.02
2024-02-27T06:49:46.452Z,58.89
2024-02-27T06:50:47.067Z,58.88
2024-02-27T06:51:46.253Z,58.94
2024-02-27T06:52:46.243Z,58.94
2024-02-27T06:53:46.715Z,59.02
2024-02-27T06:54:46.272Z,59.08
2024-02-27T06:55:46.322Z,58.99
2024-02-27T06:56:46.283Z,58.85
2024-02-27T06:57:46.863Z,58.76
2024-02-27T06:58:46.693Z,58.91
2024-02-27T06:59:46.363Z,58.85
2024-02-27T07:00:46.494Z,58.86
2024-02-27T07:01:46.366Z,58.78
2024-02-27T07:02:48.416Z,58.72
2024-02-27T07:03:46.329Z,58.82
2024-02-27T07:04:46.333Z,58.68
2024-02-27T07:05:53.045Z,58.68
2024-02-27T07:06:47.457Z,58.71
2024-02-27T07:07:46.297Z,58.75
2024-02-27T07:08:46.294Z,58.58
2024-02-27T07:09:46.324Z,58.57
2024-02-27T07:10:46.304Z,58.31
2024-02-27T07:11:46.327Z,58.36
2024-02-27T07:12:46.290Z,58.29
2024-02-27T07:13:46.307Z,58.32
2024-02-27T07:14:46.353Z,58.25
2024-02-27T07:15:46.402Z,58.31
2024-02-27T07:16:46.300Z,58.21
2024-02-27T07:17:46.426Z,58.09
2024-02-27T07:18:46.754Z,58.20
2024-02-27T07:19:46.306Z,58.29
2024-02-27T07:20:46.422Z,58.31
2024-02-27T07:21:46.334Z,58.33
2024-02-27T07:22:46.330Z,58.29
2024-02-27T07:23:46.717Z,58.51
2024-02-27T07:24:46.354Z,58.48
2024-02-27T07:25:46.312Z,58.49
2024-02-27T07:26:46.311Z,58.40
2024-02-27T07:27:46.367Z,58.38
2024-02-27T07:28:46.333Z,58.80
2024-02-27T07:29:46.406Z,59.04
2024-02-27T07:30:46.449Z,59.02
2024-02-27T07:31:46.469Z,58.71
2024-02-27T07:32:46.459Z,58.92
2024-02-27T07:33:46.764Z,59.00
2024-02-27T07:34:46.537Z,59.05
2024-02-27T07:35:46.662Z,59.17
2024-02-27T07:36:46.521Z,59.00
2024-02-27T07:37:46.497Z,59.27
2024-02-27T07:38:46.720Z,59.17
2024-02-27T07:39:46.667Z,59.11
2024-02-27T07:40:46.580Z,59.08
2024-02-27T07:41:46.569Z,59.05
2024-02-27T07:42:46.604Z,59.10
2024-02-27T07:43:46.576Z,59.15
2024-02-27T07:44:46.589Z,59.70
2024-02-27T07:45:46.679Z,59.64
2024-02-27T07:46:46.656Z,59.47
2024-02-27T07:47:46.762Z,59.43
2024-02-27T07:48:46.692Z,59.38
2024-02-27T07:49:46.631Z,59.48
2024-02-27T07:50:46.690Z,59.28
2024-02-27T07:51:46.742Z,59.31
2024-02-27T07:52:46.696Z,59.18
2024-02-27T07:53:47.219Z,58.98
2024-02-27T07:54:46.767Z,59.24
2024-02-27T07:55:46.783Z,59.70
2024-02-27T07:56:46.836Z,59.84
2024-02-27T07:57:46.913Z,60.46
2024-02-27T07:58:47.201Z,60.32
2024-02-27T07:59:47.060Z,60.22
2024-02-27T08:00:47.197Z,60.31
2024-02-27T08:01:47.197Z,60.35
2024-02-27T08:02:47.201Z,60.00
2024-02-27T08:03:47.472Z,59.93
2024-02-27T08:04:47.333Z,59.94
2024-02-27T08:05:47.427Z,59.96
2024-02-27T08:06:47.573Z,60.22
2024-02-27T08:07:47.735Z,59.96
2024-02-27T08:08:47.694Z,59.91
2024-02-27T08:09:47.725Z,59.88
2024-02-27T08:10:47.856Z,59.86
2024-02-27T08:11:47.835Z,59.87
2024-02-27T08:12:47.885Z,59.81
2024-02-27T08:13:48.222Z,59.98
2024-02-27T08:14:48.041Z,59.88
2024-02-27T08:15:48.190Z,59.87
2024-02-27T08:16:48.148Z,59.55
2024-02-27T08:17:48.272Z,59.67
2024-02-27T08:18:48.366Z,59.74
2024-02-27T08:19:48.584Z,60.00
2024-02-27T08:20:48.433Z,59.77
2024-02-27T08:21:48.536Z,59.91
2024-02-27T08:22:48.585Z,60.07
2024-02-27T08:23:48.682Z,60.01
2024-02-27T08:24:48.724Z,59.92
2024-02-27T08:25:48.802Z,60.00
2024-02-27T08:26:50.744Z,60.09
2024-02-27T08:27:49.128Z,59.57
2024-02-27T08:28:48.881Z,59.50
2024-02-27T08:29:48.864Z,59.53
2024-02-27T08:30:49.092Z,59.78
2024-02-27T08:31:49.033Z,59.64
2024-02-27T08:32:50.754Z,59.38
2024-02-27T08:33:49.388Z,58.90
2024-02-27T08:34:48.971Z,59.34
2024-02-27T08:35:48.985Z,58.88
2024-02-27T08:36:48.961Z,58.62
2024-02-27T08:37:48.908Z,59.03
2024-02-27T08:38:48.897Z,59.08
2024-02-27T08:39:48.885Z,59.13
2024-02-27T08:40:48.900Z,58.96
2024-02-27T08:41:48.993Z,59.09
2024-02-27T08:42:48.979Z,59.17
2024-02-27T08:43:49.239Z,58.98
2024-02-27T08:44:49.068Z,58.92
2024-02-27T08:45:49.122Z,58.90
2024-02-27T08:46:49.121Z,59.32
2024-02-27T08:47:49.184Z,59.08
2024-02-27T08:48:49.466Z,59.19
2024-02-27T08:49:49.261Z,59.25
2024-02-27T08:50:49.187Z,58.97
2024-02-27T08:51:49.287Z,59.21
2024-02-27T08:52:49.247Z,59.13
2024-02-27T08:53:49.747Z,59.33
2024-02-27T08:54:49.292Z,59.43
2024-02-27T08:55:49.340Z,60.06
2024-02-27T08:56:49.316Z,59.13
2024-02-27T08:57:49.370Z,59.29
2024-02-27T08:58:49.410Z,59.65
2024-02-27T08:59:49.470Z,59.72
2024-02-27T09:00:49.595Z,59.96
2024-02-27T09:01:49.440Z,60.92
2024-02-27T09:02:49.483Z,60.93
2024-02-27T09:03:49.788Z,61.71
2024-02-27T09:04:49.530Z,61.24
2024-02-27T09:05:49.578Z,61.13
2024-02-27T09:06:49.759Z,61.16
2024-02-27T09:07:49.678Z,61.00
2024-02-27T09:08:49.617Z,60.32
2024-02-27T09:09:49.726Z,60.23
2024-02-27T09:10:49.627Z,60.72
2024-02-27T09:11:49.648Z,60.37
2024-02-27T09:12:49.707Z,60.27
2024-02-27T09:13:49.763Z,60.43
2024-02-27T09:14:49.677Z,60.71
2024-02-27T09:15:49.856Z,60.70
2024-02-27T09:16:49.695Z,60.76
2024-02-27T09:17:50.024Z,60.42
2024-02-27T09:18:50.413Z,60.15
2024-02-27T09:19:50.010Z,60.25
2024-02-27T09:20:50.001Z,60.26
2024-02-27T09:21:50.030Z,60.36
2024-02-27T09:22:50.062Z,60.80
2024-02-27T09:23:50.183Z,60.65
2024-02-27T09:24:50.236Z,60.72
2024-02-27T09:25:50.282Z,60.39
2024-02-27T09:26:50.488Z,60.16
2024-02-27T09:27:50.550Z,59.96
2024-02-27T09:28:50.737Z,59.84
2024-02-27T09:29:50.608Z,63.23
2024-02-27T09:30:50.661Z,62.05
2024-02-27T09:31:50.761Z,60.73
2024-02-27T09:32:50.798Z,59.98
2024-02-27T09:33:50.967Z,59.69
2024-02-27T09:34:51.120Z,59.75
2024-02-27T09:35:50.887Z,63.10
2024-02-27T09:36:50.932Z,60.93
2024-02-27T09:37:50.927Z,60.43
2024-02-27T09:38:51.245Z,59.41
2024-02-27T09:39:58.050Z,59.29
2024-02-27T09:40:52.016Z,58.84
2024-02-27T09:41:51.075Z,58.44
2024-02-27T09:42:51.126Z,58.94
2024-02-27T09:43:51.347Z,59.07
2024-02-27T09:44:51.011Z,58.96
2024-02-27T09:45:51.111Z,58.63
2024-02-27T09:46:51.032Z,58.35
2024-02-27T09:47:51.208Z,58.06
2024-02-27T09:48:51.396Z,57.95
2024-02-27T09:49:51.081Z,57.82
2024-02-27T09:50:50.992Z,57.80
2024-02-27T09:51:51.007Z,57.71
2024-02-27T09:52:51.043Z,57.89
2024-02-27T09:53:51.230Z,58.79
2024-02-27T09:54:51.044Z,59.31
2024-02-27T09:55:51.105Z,59.94
2024-02-27T09:56:51.094Z,59.91
2024-02-27T09:57:51.505Z,59.41
2024-02-27T09:58:51.269Z,59.29
2024-02-27T09:59:51.167Z,59.43
2024-02-27T10:00:51.311Z,59.35
2024-02-27T10:01:51.429Z,59.37
2024-02-27T10:02:51.392Z,59.74
2024-02-27T10:03:51.825Z,60.08
2024-02-27T10:04:51.389Z,59.90
2024-02-27T10:05:51.474Z,60.68
2024-02-27T10:06:51.583Z,60.08
2024-02-27T10:07:51.624Z,60.22
2024-02-27T10:08:51.750Z,60.00
2024-02-27T10:09:51.564Z,60.16
2024-02-27T10:10:51.642Z,60.55
2024-02-27T10:11:51.597Z,60.71
2024-02-27T10:12:51.660Z,60.69
2024-02-27T10:13:51.758Z,61.14
2024-02-27T10:14:51.790Z,60.78
2024-02-27T10:15:51.808Z,60.61
2024-02-27T10:16:51.804Z,60.52
2024-02-27T10:17:51.944Z,60.87
2024-02-27T10:18:51.988Z,60.81
2024-02-27T10:19:51.920Z,60.82
2024-02-27T10:20:51.953Z,60.60
2024-02-27T10:21:51.936Z,59.82
2024-02-27T10:22:52.039Z,60.37
2024-02-27T10:23:52.306Z,60.68
2024-02-27T10:24:52.001Z,60.43
2024-02-27T10:25:51.956Z,60.47
2024-02-27T10:26:51.985Z,60.85
2024-02-27T10:27:51.979Z,60.49
2024-02-27T10:28:52.258Z,59.75
2024-02-27T10:29:52.039Z,59.73
2024-02-27T10:30:52.087Z,59.44
2024-02-27T10:31:52.127Z,60.37
2024-02-27T10:32:52.243Z,59.86
2024-02-27T10:33:52.339Z,59.71
2024-02-27T10:34:52.491Z,58.38
2024-02-27T10:35:52.328Z,58.24
2024-02-27T10:36:52.342Z,58.61
2024-02-27T10:37:52.363Z,58.80
2024-02-27T10:38:52.420Z,58.10
2024-02-27T10:39:52.391Z,58.14
2024-02-27T10:40:52.391Z,57.67
2024-02-27T10:41:52.429Z,57.46
2024-02-27T10:42:52.525Z,57.89
2024-02-27T10:43:55.390Z,58.03
2024-02-27T10:44:52.417Z,57.32
2024-02-27T10:45:52.490Z,57.18
2024-02-27T10:46:52.446Z,57.38
2024-02-27T10:47:52.510Z,57.57
2024-02-27T10:48:52.908Z,57.78
2024-02-27T10:49:52.472Z,60.58
2024-02-27T10:50:52.465Z,58.85
2024-02-27T10:51:52.461Z,57.02
2024-02-27T10:52:52.489Z,57.45
2024-02-27T10:53:52.480Z,55.97
2024-02-27T10:54:52.489Z,56.44
2024-02-27T10:55:52.469Z,56.23
2024-02-27T10:56:52.486Z,56.94
2024-02-27T10:57:52.540Z,57.02
2024-02-27T10:58:52.750Z,56.11
2024-02-27T10:59:52.510Z,55.23
2024-02-27T11:00:52.572Z,56.55
2024-02-27T11:01:52.541Z,57.32
2024-02-27T11:02:52.548Z,56.39
2024-02-27T11:03:52.526Z,55.95
2024-02-27T11:04:52.636Z,56.48
2024-02-27T11:05:52.619Z,56.12
2024-02-27T11:06:52.718Z,56.92
2024-02-27T11:07:52.613Z,56.17
2024-02-27T11:08:52.771Z,57.24
2024-02-27T11:09:52.810Z,56.00
2024-02-27T11:10:53.877Z,57.39
2024-02-27T11:11:52.887Z,57.23
2024-02-27T11:12:52.966Z,57.30
2024-02-27T11:13:53.283Z,62.88
2024-02-27T11:14:52.956Z,60.24
2024-02-27T11:15:53.032Z,59.34
2024-02-27T11:16:52.958Z,57.81
2024-02-27T11:17:53.021Z,55.93
2024-02-27T11:18:53.443Z,56.33
2024-02-27T11:19:53.185Z,56.03
2024-02-27T11:20:53.030Z,55.93
2024-02-27T11:21:53.125Z,57.03
2024-02-27T11:22:53.099Z,56.40
2024-02-27T11:23:53.274Z,57.09
2024-02-27T11:24:53.214Z,57.14
2024-02-27T11:25:53.285Z,55.77
2024-02-27T11:26:53.228Z,55.97
2024-02-27T11:27:53.250Z,56.53
2024-02-27T11:28:53.268Z,56.58
2024-02-27T11:29:53.350Z,55.00
2024-02-27T11:30:53.402Z,54.80
2024-02-27T11:31:54.289Z,55.01
2024-02-27T11:33:54.024Z,54.47
2024-02-27T11:34:53.779Z,55.73
2024-02-27T11:35:53.654Z,54.78
2024-02-27T11:36:53.762Z,54.90
2024-02-27T11:37:53.804Z,54.62
2024-02-27T11:39:16.944Z,55.05
2024-02-27T11:39:53.942Z,55.61
2024-02-27T11:40:54.260Z,56.04
2024-02-27T11:41:53.869Z,55.15
2024-02-27T11:42:53.901Z,55.75
2024-02-27T11:43:54.295Z,56.26
2024-02-27T11:44:53.869Z,54.22
2024-02-27T11:45:53.912Z,53.81
2024-02-27T11:46:53.879Z,55.22
2024-02-27T11:47:54.209Z,54.69
2024-02-27T11:48:54.062Z,55.08
2024-02-27T11:49:54.084Z,55.31
2024-02-27T11:50:54.061Z,55.24
2024-02-27T11:51:54.045Z,54.41
2024-02-27T11:52:54.079Z,52.95
2024-02-27T11:53:54.138Z,52.98
2024-02-27T11:54:54.249Z,53.00
2024-02-27T11:55:54.201Z,55.11
2024-02-27T11:56:54.226Z,54.55
2024-02-27T11:57:54.230Z,54.05
2024-02-27T11:58:54.286Z,53.17
2024-02-27T11:59:54.229Z,53.26
2024-02-27T12:00:54.409Z,52.76
2024-02-27T12:01:55.903Z,53.44
2024-02-27T12:02:54.257Z,53.48
2024-02-27T12:03:54.340Z,52.78
2024-02-27T12:04:54.356Z,52.18
2024-02-27T12:05:54.272Z,51.45
2024-02-27T12:06:54.288Z,52.79
2024-02-27T12:07:54.267Z,51.52
2024-02-27T12:08:54.294Z,52.06
2024-02-27T12:09:54.347Z,51.66
2024-02-27T12:10:54.285Z,51.79
2024-02-27T12:11:54.276Z,51.67
2024-02-27T12:12:54.340Z,51.98
2024-02-27T12:13:54.282Z,52.49
2024-02-27T12:14:54.278Z,52.30
2024-02-27T12:15:54.351Z,52.66
2024-02-27T12:16:54.291Z,51.96
2024-02-27T12:17:54.499Z,51.42
2024-02-27T12:18:54.437Z,50.00
2024-02-27T12:19:54.513Z,49.76
2024-02-27T12:20:54.335Z,51.08
2024-02-27T12:21:54.442Z,51.34
2024-02-27T12:22:54.276Z,51.13
2024-02-27T12:23:55.365Z,50.86
2024-02-27T12:24:54.407Z,51.23
2024-02-27T12:25:54.332Z,50.92
2024-02-27T12:26:54.297Z,49.58
2024-02-27T12:27:54.370Z,49.41
2024-02-27T12:28:54.831Z,50.14
2024-02-27T12:29:54.323Z,50.11
2024-02-27T12:30:54.368Z,49.60
2024-02-27T12:31:54.368Z,50.48
2024-02-27T12:32:54.368Z,50.38
2024-02-27T12:33:54.983Z,50.90
2024-02-27T12:34:54.354Z,51.44
2024-02-27T12:35:54.407Z,50.96
2024-02-27T12:36:54.608Z,50.95
2024-02-27T12:37:54.524Z,51.61
2024-02-27T12:38:54.789Z,52.30
2024-02-27T12:39:54.699Z,51.14
2024-02-27T12:40:54.790Z,50.96
2024-02-27T12:41:54.846Z,50.51
2024-02-27T12:42:54.930Z,50.33
2024-02-27T12:43:55.291Z,50.36
2024-02-27T12:44:54.985Z,50.18
2024-02-27T12:45:55.149Z,51.25
2024-02-27T12:46:55.125Z,51.01
2024-02-27T12:47:55.437Z,51.02
2024-02-27T12:48:55.465Z,50.42
2024-02-27T12:49:55.392Z,50.51
2024-02-27T12:50:55.401Z,50.27
2024-02-27T12:51:55.498Z,49.95
2024-02-27T12:53:02.584Z,50.15
2024-02-27T12:53:56.549Z,49.66
2024-02-27T12:54:55.604Z,49.42
2024-02-27T12:55:55.532Z,49.72